Time,TemperatureF,DewpointF,PressureIn,WindDirection,WindDirectionDegrees,WindSpeedMPH,WindSpeedGustMPH,Humidity,HourlyPrecipIn,Conditions,Clouds,dailyrainin,SoftwareType,DateUTC
2013-01-28 00:00:00,34.7,25.9,30.22,North,349,0.0,0.0,70,0.00,,,0.00,Wunderground v.1.15,2013-01-28 05:00:00,
2013-01-28 00:10:00,34.7,25.6,30.20,West,260,0.0,0.0,69,0.00,,,0.00,Wunderground v.1.15,2013-01-28 05:10:00,
2013-01-28 00:20:00,34.7,25.9,30.22,West,260,0.0,0.0,70,0.00,,,0.00,Wunderground v.1.15,2013-01-28 05:20:00,
2013-01-28 00:25:00,34.7,25.9,30.21,West,260,0.0,0.0,70,0.00,,,0.00,Wunderground v.1.15,2013-01-28 05:25:00,
2013-01-28 00:30:00,34.7,25.9,30.20,West,260,0.0,0.0,70,0.00,,,0.00,Wunderground v.1.15,2013-01-28 05:30:00,
2013-01-28 00:40:00,34.7,25.9,30.20,NNW,347,0.0,0.0,70,0.00,,,0.00,Wunderground v.1.15,2013-01-28 05:40:00,
2013-01-28 00:50:00,34.9,26.1,30.22,NNW,347,0.0,0.0,70,0.00,,,0.00,Wunderground v.1.15,2013-01-28 05:50:00,
2013-01-28 01:00:00,34.7,25.9,30.21,ENE,61,0.0,0.0,70,0.00,,,0.00,Wunderground v.1.15,2013-01-28 06:00:00,
2013-01-28 01:10:00,34.7,25.9,30.20,West,265,0.0,0.0,70,0.00,,,0.00,Wunderground v.1.15,2013-01-28 06:10:00,
2013-01-28 01:15:00,34.7,25.6,30.20,North,360,0.0,0.0,69,0.00,,,0.00,Wunderground v.1.15,2013-01-28 06:15:00,
2013-01-28 01:25:00,34.7,25.9,30.20,North,360,0.0,1.0,70,0.00,,,0.00,Wunderground v.1.15,2013-01-28 06:25:00,
2013-01-28 01:30:00,34.6,25.5,30.19,North,360,0.0,0.0,69,0.00,,,0.00,Wunderground v.1.15,2013-01-28 06:30:00,
2013-01-28 01:40:00,34.4,25.6,30.19,North,360,0.0,0.0,70,0.00,,,0.00,Wunderground v.1.15,2013-01-28 06:40:00,
2013-01-28 01:50:00,34.3,25.5,30.18,North,360,0.0,0.0,70,0.00,,,0.00,Wunderground v.1.15,2013-01-28 06:50:00,
2013-01-28 02:00:00,34.0,25.6,30.18,NE,44,0.0,0.0,71,0.00,,,0.00,Wunderground v.1.15,2013-01-28 07:00:00,
2013-01-28 02:10:00,33.8,25.7,30.19,NE,44,0.0,0.0,72,0.00,,,0.00,Wunderground v.1.15,2013-01-28 07:10:00,
2013-01-28 02:20:00,34.0,26.3,30.20,NE,38,0.0,2.0,73,0.00,,,0.00,Wunderground v.1.15,2013-01-28 07:20:00,
2013-01-28 02:30:00,34.3,25.9,30.20,NNE,28,0.0,0.0,71,0.00,,,0.00,Wunderground v.1.15,2013-01-28 07:30:00,
2013-01-28 02:40:00,34.4,25.3,30.19,ESE,113,1.0,1.0,69,0.00,,,0.00,Wunderground v.1.15,2013-01-28 07:40:00,
2013-01-28 02:45:00,34.4,25.3,30.19,East,100,0.0,1.0,69,0.00,,,0.00,Wunderground v.1.15,2013-01-28 07:45:00,
2013-01-28 02:55:00,34.7,25.2,30.19,NNW,342,0.0,1.0,68,0.00,,,0.00,Wunderground v.1.15,2013-01-28 07:55:00,
2013-01-28 03:05:00,34.9,25.4,30.20,North,350,0.0,0.0,68,0.00,,,0.00,Wunderground v.1.15,2013-01-28 08:05:00,
2013-01-28 03:10:00,34.9,25.0,30.20,WNW,291,0.0,0.0,67,0.00,,,0.00,Wunderground v.1.15,2013-01-28 08:10:00,
2013-01-28 03:20:00,35.2,25.3,30.20,WNW,292,0.0,0.0,67,0.00,,,0.00,Wunderground v.1.15,2013-01-28 08:20:00,
2013-01-28 03:30:00,35.3,25.4,30.20,WNW,291,0.0,0.0,67,0.00,,,0.00,Wunderground v.1.15,2013-01-28 08:30:00,
2013-01-28 03:40:00,35.5,25.6,30.19,WNW,291,0.0,0.0,67,0.00,,,0.00,Wunderground v.1.15,2013-01-28 08:40:00,
2013-01-28 03:50:00,35.9,25.3,30.19,WNW,291,0.0,0.0,65,0.00,,,0.00,Wunderground v.1.15,2013-01-28 08:50:00,
2013-01-28 04:00:00,36.3,25.3,30.19,WNW,291,0.0,0.0,64,0.00,,,0.00,Wunderground v.1.15,2013-01-28 09:00:00,
2013-01-28 04:10:00,36.6,25.6,30.18,North,355,0.0,0.0,64,0.00,,,0.00,Wunderground v.1.15,2013-01-28 09:10:00,
2013-01-28 04:20:00,36.8,25.4,30.18,North,5,0.0,1.0,63,0.00,,,0.00,Wunderground v.1.15,2013-01-28 09:20:00,
2013-01-28 04:25:00,36.9,25.1,30.18,NE,37,0.0,1.0,62,0.00,,,0.00,Wunderground v.1.15,2013-01-28 09:25:00,
2013-01-28 04:35:00,37.0,25.6,30.19,West,279,0.0,0.0,63,0.00,,,0.00,Wunderground v.1.15,2013-01-28 09:35:00,
2013-01-28 04:40:00,37.0,25.6,30.18,West,279,0.0,0.0,63,0.00,,,0.00,Wunderground v.1.15,2013-01-28 09:40:00,
2013-01-28 04:50:00,37.0,25.6,30.19,NNW,338,0.0,1.0,63,0.00,,,0.00,Wunderground v.1.15,2013-01-28 09:50:00,
2013-01-28 05:00:00,37.0,25.6,30.19,NW,321,0.0,0.0,63,0.00,,,0.00,Wunderground v.1.15,2013-01-28 10:00:00,
2013-01-28 05:10:00,37.0,25.6,30.20,NW,321,0.0,0.0,63,0.00,,,0.00,Wunderground v.1.15,2013-01-28 10:10:00,
2013-01-28 05:20:00,37.0,25.9,30.20,NE,40,0.0,0.0,64,0.00,,,0.00,Wunderground v.1.15,2013-01-28 10:20:00,
2013-01-28 05:30:00,37.2,26.9,30.21,WSW,257,0.0,2.0,66,0.00,,,0.00,Wunderground v.1.15,2013-01-28 10:30:00,
2013-01-28 05:40:00,37.5,27.2,30.21,West,267,2.0,3.0,66,0.00,,,0.00,Wunderground v.1.15,2013-01-28 10:40:00,
2013-01-28 05:45:00,37.6,27.6,30.21,West,281,2.0,3.0,67,0.00,,,0.00,Wunderground v.1.15,2013-01-28 10:45:00,
2013-01-28 05:50:00,37.8,28.5,30.21,WNW,298,2.0,2.0,69,0.00,,,0.00,Wunderground v.1.15,2013-01-28 10:50:00,
2013-01-28 06:00:00,37.9,29.7,30.21,SW,235,1.0,3.0,72,0.00,,,0.00,Wunderground v.1.15,2013-01-28 11:00:00,
2013-01-28 06:10:00,38.3,31.4,30.20,West,268,1.0,1.0,76,0.00,,,0.00,Wunderground v.1.15,2013-01-28 11:10:00,
2013-01-28 06:20:00,38.6,32.0,30.21,West,273,1.0,1.0,77,0.00,,,0.00,Wunderground v.1.15,2013-01-28 11:20:00,
2013-01-28 06:30:00,38.8,32.2,30.21,West,275,1.0,2.0,77,0.00,,,0.00,Wunderground v.1.15,2013-01-28 11:30:00,
2013-01-28 06:40:00,39.2,33.5,30.21,WNW,285,1.0,2.0,80,0.00,,,0.00,Wunderground v.1.15,2013-01-28 11:40:00,
2013-01-28 06:50:00,39.8,34.4,30.21,West,269,2.0,2.0,81,0.00,,,0.00,Wunderground v.1.15,2013-01-28 11:50:00,
2013-01-28 07:00:00,40.5,36.0,30.20,West,272,1.0,3.0,84,0.00,,,0.00,Wunderground v.1.15,2013-01-28 12:00:00,
2013-01-28 07:05:00,40.9,36.7,30.19,West,270,1.0,3.0,85,0.00,,,0.00,Wunderground v.1.15,2013-01-28 12:05:00,
2013-01-28 07:15:00,41.6,37.7,30.19,West,273,2.0,2.0,86,0.00,,,0.00,Wunderground v.1.15,2013-01-28 12:15:00,
2013-01-28 07:20:00,41.8,37.9,30.19,West,281,1.0,1.0,86,0.00,,,0.00,Wunderground v.1.15,2013-01-28 12:20:00,
2013-01-28 07:30:00,42.1,38.8,30.19,WNW,296,0.0,0.0,88,0.00,,,0.00,Wunderground v.1.15,2013-01-28 12:30:00,
2013-01-28 07:40:00,42.5,39.5,30.19,WSW,257,1.0,1.0,89,0.00,,,0.00,Wunderground v.1.15,2013-01-28 12:40:00,
2013-01-28 07:50:00,42.6,39.9,30.19,West,275,1.0,1.0,90,0.00,,,0.00,Wunderground v.1.15,2013-01-28 12:50:00,
2013-01-28 08:00:00,42.8,40.4,30.19,ENE,78,1.0,1.0,91,0.00,,,0.00,Wunderground v.1.15,2013-01-28 13:00:00,
2013-01-28 08:10:00,42.8,40.6,30.20,West,281,0.0,0.0,92,0.00,,,0.00,Wunderground v.1.15,2013-01-28 13:10:00,
2013-01-28 08:20:00,42.8,40.6,30.19,West,281,0.0,0.0,92,0.00,,,0.00,Wunderground v.1.15,2013-01-28 13:20:00,
2013-01-28 08:25:00,42.9,41.0,30.19,West,281,0.0,0.0,93,0.00,,,0.00,Wunderground v.1.15,2013-01-28 13:25:00,
2013-01-28 08:35:00,42.9,41.0,30.20,West,281,0.0,2.0,93,0.00,,,0.00,Wunderground v.1.15,2013-01-28 13:35:00,
2013-01-28 08:45:00,43.1,41.5,30.20,West,268,1.0,1.0,94,0.00,,,0.00,Wunderground v.1.15,2013-01-28 13:45:00,
2013-01-28 08:50:00,43.2,41.6,30.20,WNW,287,1.0,1.0,94,0.00,,,0.00,Wunderground v.1.15,2013-01-28 13:50:00,
2013-01-28 09:00:00,43.3,41.7,30.20,West,266,1.0,3.0,94,0.00,,,0.00,Wunderground v.1.15,2013-01-28 14:00:00,
2013-01-28 09:10:00,43.6,42.3,30.19,North,11,1.0,1.0,95,0.00,,,0.00,Wunderground v.1.15,2013-01-28 14:10:00,
2013-01-28 09:20:00,43.9,42.6,30.20,WSW,254,1.0,2.0,95,0.00,,,0.00,Wunderground v.1.15,2013-01-28 14:20:00,
2013-01-28 09:30:00,43.9,42.8,30.19,West,267,0.0,1.0,96,0.00,,,0.00,Wunderground v.1.15,2013-01-28 14:30:00,
2013-01-28 09:40:00,44.2,43.1,30.19,West,259,1.0,1.0,96,0.00,,,0.00,Wunderground v.1.15,2013-01-28 14:40:00,
2013-01-28 09:50:00,44.2,43.1,30.19,West,271,0.0,0.0,96,0.00,,,0.00,Wunderground v.1.15,2013-01-28 14:50:00,
2013-01-28 10:00:00,44.3,43.2,30.19,ENE,57,0.0,0.0,96,0.00,,,0.00,Wunderground v.1.15,2013-01-28 15:00:00,
2013-01-28 10:10:00,44.5,43.4,30.18,ENE,65,0.0,0.0,96,0.00,,,0.00,Wunderground v.1.15,2013-01-28 15:10:00,
2013-01-28 10:20:00,44.6,43.5,30.18,SSW,211,0.0,0.0,96,0.00,,,0.00,Wunderground v.1.15,2013-01-28 15:20:00,
2013-01-28 10:25:00,44.6,43.5,30.18,NE,44,1.0,3.0,96,0.00,,,0.00,Wunderground v.1.15,2013-01-28 15:25:00,
2013-01-28 10:30:00,44.8,43.7,30.18,SSW,194,1.0,1.0,96,0.00,,,0.00,Wunderground v.1.15,2013-01-28 15:30:00,
2013-01-28 10:40:00,44.8,44.0,30.19,West,272,2.0,2.0,97,0.00,,,0.00,Wunderground v.1.15,2013-01-28 15:40:00,
2013-01-28 10:50:00,44.8,44.0,30.19,South,181,1.0,1.0,97,0.00,,,0.00,Wunderground v.1.15,2013-01-28 15:50:00,
2013-01-28 11:00:00,44.9,44.1,30.18,East,97,1.0,1.0,97,0.00,,,0.00,Wunderground v.1.15,2013-01-28 16:00:00,
2013-01-28 11:10:00,44.9,44.1,30.18,NNE,26,1.0,3.0,97,0.00,,,0.00,Wunderground v.1.15,2013-01-28 16:10:00,
2013-01-28 11:20:00,45.2,44.4,30.18,NNW,329,1.0,1.0,97,0.00,,,0.00,Wunderground v.1.15,2013-01-28 16:20:00,
2013-01-28 11:30:00,45.2,44.4,30.18,NNW,342,1.0,1.0,97,0.00,,,0.00,Wunderground v.1.15,2013-01-28 16:30:00,
2013-01-28 11:40:00,45.2,44.4,30.17,North,360,1.0,4.0,97,0.00,,,0.00,Wunderground v.1.15,2013-01-28 16:40:00,
2013-01-28 11:45:00,45.2,44.4,30.17,North,9,1.0,4.0,97,0.00,,,0.00,Wunderground v.1.15,2013-01-28 16:45:00,
2013-01-28 11:55:00,45.2,44.4,30.17,NE,46,1.0,2.0,97,0.00,,,0.00,Wunderground v.1.15,2013-01-28 16:55:00,
2013-01-28 12:05:00,45.4,44.6,30.17,NNW,334,1.0,1.0,97,0.00,,,0.00,Wunderground v.1.15,2013-01-28 17:05:00,
2013-01-28 12:10:00,45.2,44.4,30.16,SW,234,1.0,2.0,97,0.00,,,0.00,Wunderground v.1.15,2013-01-28 17:10:00,
2013-01-28 12:20:00,45.2,44.4,30.16,WSW,252,1.0,1.0,97,0.00,,,0.00,Wunderground v.1.15,2013-01-28 17:20:00,
2013-01-28 12:30:00,45.2,44.7,30.15,SW,221,1.0,2.0,98,0.00,,,0.00,Wunderground v.1.15,2013-01-28 17:30:00,
2013-01-28 12:40:00,45.5,45.0,30.14,NNE,28,1.0,1.0,98,0.00,,,0.00,Wunderground v.1.15,2013-01-28 17:40:00,
2013-01-28 12:50:00,46.2,45.7,30.14,NNE,26,1.0,1.0,98,0.00,,,0.00,Wunderground v.1.15,2013-01-28 17:50:00,
2013-01-28 13:00:00,47.0,46.5,30.13,SW,236,1.0,2.0,98,0.00,,,0.00,Wunderground v.1.15,2013-01-28 18:00:00,
2013-01-28 13:05:00,47.6,47.1,30.13,NNW,342,2.0,2.0,98,0.00,,,0.00,Wunderground v.1.15,2013-01-28 18:05:00,
2013-01-28 13:15:00,48.0,47.5,30.11,West,271,1.0,2.0,98,0.00,,,0.00,Wunderground v.1.15,2013-01-28 18:15:00,
2013-01-28 13:25:00,48.8,48.3,30.11,NNE,14,2.0,2.0,98,0.00,,,0.00,Wunderground v.1.15,2013-01-28 18:25:00,
2013-01-28 13:30:00,49.1,48.6,30.10,NNE,12,2.0,2.0,98,0.00,,,0.00,Wunderground v.1.15,2013-01-28 18:30:00,
2013-01-28 13:40:00,49.1,48.6,30.09,NNE,24,2.0,2.0,98,0.00,,,0.00,Wunderground v.1.15,2013-01-28 18:40:00,
2013-01-28 13:50:00,49.8,49.3,30.09,West,259,1.0,5.0,98,0.00,,,0.00,Wunderground v.1.15,2013-01-28 18:50:00,
2013-01-28 14:00:00,50.1,49.6,30.08,ENE,64,1.0,1.0,98,0.00,,,0.00,Wunderground v.1.15,2013-01-28 19:00:00,
2013-01-28 14:10:00,51.0,49.6,30.06,ENE,57,3.0,3.0,95,0.00,,,0.00,Wunderground v.1.15,2013-01-28 19:10:00,
2013-01-28 14:20:00,52.0,48.3,30.06,NNW,336,3.0,3.0,87,0.00,,,0.00,Wunderground v.1.15,2013-01-28 19:20:00,
2013-01-28 14:30:00,52.3,47.6,30.05,West,264,3.0,4.0,84,0.00,,,0.00,Wunderground v.1.15,2013-01-28 19:30:00,
2013-01-28 14:35:00,52.3,47.3,30.05,West,271,3.0,4.0,83,0.00,,,0.00,Wunderground v.1.15,2013-01-28 19:35:00,
2013-01-28 14:40:00,52.2,47.5,30.05,West,264,3.0,3.0,84,0.00,,,0.00,Wunderground v.1.15,2013-01-28 19:40:00,
2013-01-28 14:50:00,52.3,47.9,30.05,ENE,74,2.0,2.0,85,0.00,,,0.00,Wunderground v.1.15,2013-01-28 19:50:00,
2013-01-28 15:00:00,52.8,48.1,30.04,NE,53,2.0,2.0,84,0.00,,,0.00,Wunderground v.1.15,2013-01-28 20:00:00,
2013-01-28 15:10:00,53.3,47.6,30.04,North,360,2.0,2.0,81,0.00,,,0.00,Wunderground v.1.15,2013-01-28 20:10:00,
2013-01-28 15:20:00,53.5,47.8,30.03,NE,54,2.0,2.0,81,0.00,,,0.00,Wunderground v.1.15,2013-01-28 20:20:00,
2013-01-28 15:30:00,53.6,47.9,30.04,West,267,2.0,2.0,81,0.00,,,0.00,Wunderground v.1.15,2013-01-28 20:30:00,
2013-01-28 15:40:00,53.8,47.8,30.04,NNE,27,3.0,3.0,80,0.00,,,0.00,Wunderground v.1.15,2013-01-28 20:40:00,
2013-01-28 15:50:00,53.6,47.9,30.04,ESE,117,1.0,1.0,81,0.00,,,0.00,Wunderground v.1.15,2013-01-28 20:50:00,
2013-01-28 15:55:00,53.5,47.8,30.04,West,259,1.0,3.0,81,0.00,,,0.00,Wunderground v.1.15,2013-01-28 20:55:00,
2013-01-28 16:05:00,53.2,47.5,30.04,West,271,2.0,5.0,81,0.00,,,0.00,Wunderground v.1.15,2013-01-28 21:05:00,
2013-01-28 16:10:00,53.2,47.5,30.04,West,280,2.0,2.0,81,0.00,,,0.00,Wunderground v.1.15,2013-01-28 21:10:00,
2013-01-28 16:15:00,53.1,47.1,30.04,North,360,3.0,3.0,80,0.00,,,0.00,Wunderground v.1.15,2013-01-28 21:15:00,
2013-01-28 16:25:00,53.2,47.2,30.04,NNE,32,2.0,2.0,80,0.00,,,0.00,Wunderground v.1.15,2013-01-28 21:25:00,
2013-01-28 16:35:00,54.1,47.0,30.04,West,271,2.0,2.0,77,0.00,,,0.00,Wunderground v.1.15,2013-01-28 21:35:00,
2013-01-28 16:40:00,53.9,46.9,30.03,West,275,3.0,3.0,77,0.00,,,0.00,Wunderground v.1.15,2013-01-28 21:40:00,
2013-01-28 16:50:00,53.8,47.1,30.03,SW,226,1.0,2.0,78,0.00,,,0.00,Wunderground v.1.15,2013-01-28 21:50:00,
2013-01-28 17:00:00,53.6,46.9,30.03,West,266,3.0,3.0,78,0.00,,,0.00,Wunderground v.1.15,2013-01-28 22:00:00,
2013-01-28 17:10:00,53.2,46.5,30.03,West,261,2.0,4.0,78,0.00,,,0.00,Wunderground v.1.15,2013-01-28 22:10:00,
2013-01-28 17:20:00,52.8,46.5,30.03,East,84,2.0,2.0,79,0.00,,,0.00,Wunderground v.1.15,2013-01-28 22:20:00,
2013-01-28 17:30:00,52.2,46.2,30.03,WNW,291,1.0,1.0,80,0.00,,,0.00,Wunderground v.1.15,2013-01-28 22:30:00,
2013-01-28 17:40:00,51.4,45.8,30.04,North,360,2.0,2.0,81,0.00,,,0.00,Wunderground v.1.15,2013-01-28 22:40:00,
2013-01-28 17:45:00,51.0,45.7,30.04,WSW,258,2.0,5.0,82,0.00,,,0.00,Wunderground v.1.15,2013-01-28 22:45:00,
2013-01-28 17:55:00,50.7,45.7,30.03,NNE,29,2.0,3.0,83,0.00,,,0.00,Wunderground v.1.15,2013-01-28 22:55:00,
2013-01-28 18:05:00,50.5,45.5,30.02,SW,234,1.0,2.0,83,0.00,,,0.00,Wunderground v.1.15,2013-01-28 23:05:00,
2013-01-28 18:10:00,50.4,45.4,30.03,NE,51,1.0,1.0,83,0.00,,,0.00,Wunderground v.1.15,2013-01-28 23:10:00,
2013-01-28 18:20:00,50.1,45.5,30.03,WSW,239,1.0,1.0,84,0.00,,,0.00,Wunderground v.1.15,2013-01-28 23:20:00,
2013-01-28 18:30:00,49.9,45.6,30.03,SW,230,0.0,2.0,85,0.00,,,0.00,Wunderground v.1.15,2013-01-28 23:30:00,
2013-01-28 18:40:00,49.9,45.6,30.03,ENE,63,0.0,0.0,85,0.00,,,0.00,Wunderground v.1.15,2013-01-28 23:40:00,
2013-01-28 18:50:00,50.2,45.9,30.03,West,269,1.0,1.0,85,0.00,,,0.00,Wunderground v.1.15,2013-01-28 23:50:00,
2013-01-28 19:00:00,50.2,45.6,30.03,West,281,0.0,0.0,84,0.00,,,0.00,Wunderground v.1.15,2013-01-29 00:00:00,
2013-01-28 19:10:00,50.1,45.5,30.03,West,260,0.0,0.0,84,0.00,,,0.00,Wunderground v.1.15,2013-01-29 00:10:00,
2013-01-28 19:20:00,49.9,45.3,30.02,West,259,0.0,0.0,84,0.00,,,0.00,Wunderground v.1.15,2013-01-29 00:20:00,
2013-01-28 19:25:00,49.8,45.2,30.03,West,259,0.0,0.0,84,0.00,,,0.00,Wunderground v.1.15,2013-01-29 00:25:00,
2013-01-28 19:35:00,49.5,44.9,30.02,West,259,0.0,0.0,84,0.00,,,0.00,Wunderground v.1.15,2013-01-29 00:35:00,
2013-01-28 19:40:00,49.5,45.2,30.03,West,259,0.0,0.0,85,0.00,,,0.00,Wunderground v.1.15,2013-01-29 00:40:00,
2013-01-28 19:50:00,49.5,44.9,30.02,West,259,0.0,0.0,84,0.00,,,0.00,Wunderground v.1.15,2013-01-29 00:50:00,
2013-01-28 20:00:00,49.2,44.6,30.02,West,259,0.0,0.0,84,0.00,,,0.00,Wunderground v.1.15,2013-01-29 01:00:00,
2013-01-28 20:10:00,48.8,44.8,30.02,West,259,0.0,1.0,86,0.00,,,0.00,Wunderground v.1.15,2013-01-29 01:10:00,
2013-01-28 20:20:00,48.2,44.2,30.02,West,259,0.0,0.0,86,0.00,,,0.00,Wunderground v.1.15,2013-01-29 01:20:00,
2013-01-28 20:30:00,47.6,43.9,30.02,West,259,0.0,0.0,87,0.00,,,0.00,Wunderground v.1.15,2013-01-29 01:30:00,
2013-01-28 20:40:00,47.1,44.0,30.03,West,259,0.0,0.0,89,0.00,,,0.00,Wunderground v.1.15,2013-01-29 01:40:00,
2013-01-28 20:45:00,47.0,43.9,30.02,West,259,0.0,0.0,89,0.00,,,0.00,Wunderground v.1.15,2013-01-29 01:45:00,
2013-01-28 20:55:00,46.5,43.7,30.03,West,259,0.0,0.0,90,0.00,,,0.00,Wunderground v.1.15,2013-01-29 01:55:00,
2013-01-28 21:00:00,46.1,43.3,30.03,West,259,0.0,0.0,90,0.00,,,0.00,Wunderground v.1.15,2013-01-29 02:00:00,
2013-01-28 21:10:00,46.2,43.7,30.03,WNW,282,1.0,1.0,91,0.00,,,0.00,Wunderground v.1.15,2013-01-29 02:10:00,
2013-01-28 21:20:00,46.1,43.6,30.03,WNW,282,0.0,0.0,91,0.00,,,0.00,Wunderground v.1.15,2013-01-29 02:20:00,
2013-01-28 21:30:00,46.8,44.6,30.03,WNW,282,0.0,1.0,92,0.00,,,0.00,Wunderground v.1.15,2013-01-29 02:30:00,
2013-01-28 21:40:00,47.3,44.5,30.03,WNW,282,0.0,0.0,90,0.00,,,0.00,Wunderground v.1.15,2013-01-29 02:40:00,
2013-01-28 21:50:00,46.7,43.6,30.03,WNW,282,0.0,0.0,89,0.00,,,0.00,Wunderground v.1.15,2013-01-29 02:50:00,
2013-01-28 22:00:00,46.7,43.9,30.03,East,79,0.0,0.0,90,0.00,,,0.00,Wunderground v.1.15,2013-01-29 03:00:00,
2013-01-28 22:10:00,47.4,44.6,30.02,South,185,1.0,1.0,90,0.00,,,0.00,Wunderground v.1.15,2013-01-29 03:10:00,
2013-01-28 22:20:00,47.1,44.0,30.02,SE,144,0.0,0.0,89,0.00,,,0.00,Wunderground v.1.15,2013-01-29 03:20:00,
2013-01-28 22:25:00,47.1,44.0,30.02,SW,226,0.0,1.0,89,0.00,,,0.00,Wunderground v.1.15,2013-01-29 03:25:00,
2013-01-28 22:35:00,47.1,44.0,30.02,WSW,253,0.0,0.0,89,0.00,,,0.00,Wunderground v.1.15,2013-01-29 03:35:00,
2013-01-28 22:45:00,48.3,44.3,30.02,SW,221,1.0,2.0,86,0.00,,,0.00,Wunderground v.1.15,2013-01-29 03:45:00,
2013-01-28 22:50:00,48.8,44.2,30.02,West,259,2.0,2.0,84,0.00,,,0.00,Wunderground v.1.15,2013-01-29 03:50:00,
2013-01-28 23:00:00,48.8,43.9,30.02,NW,320,0.0,1.0,83,0.00,,,0.00,Wunderground v.1.15,2013-01-29 04:00:00,
2013-01-28 23:10:00,48.9,44.0,30.02,WSW,258,1.0,1.0,83,0.00,,,0.00,Wunderground v.1.15,2013-01-29 04:10:00,
2013-01-28 23:20:00,48.5,43.6,30.01,NW,304,0.0,0.0,83,0.00,,,0.00,Wunderground v.1.15,2013-01-29 04:20:00,
2013-01-28 23:30:00,47.7,43.1,30.02,NE,34,0.0,0.0,84,0.00,,,0.00,Wunderground v.1.15,2013-01-29 04:30:00,
2013-01-28 23:40:00,47.6,42.7,30.02,West,269,0.0,0.0,83,0.00,,,0.00,Wunderground v.1.15,2013-01-29 04:40:00,
2013-01-28 23:50:00,47.3,42.7,30.02,NW,312,0.0,0.0,84,0.00,,,0.00,Wunderground v.1.15,2013-01-29 04:50:00,
2013-01-28 23:55:00,47.3,42.7,30.02,WSW,240,0.0,0.0,84,0.00,,,0.00,Wunderground v.1.15,2013-01-29 04:55:00,